Time;durP1;ratioP1;P1;durP2;ratioP2;P2;SDS_P1;SDS_P2;PMS_P1;PMS_P2;Temp;Humidity;BMP_temperature;BMP_pressure;BME280_temperature;BME280_humidity;BME280_pressure;Samples;Min_cycle;Max_cycle;Signal;HPM_P1;HPM_P2
2023/04/22 00:00:38;;;;;;;7.50;2.45;;;;;;;;;;5054359;28;20175;-55
2023/04/22 00:03:12;;;;;;;6.00;2.67;;;;;;;;;;5054802;28;20051;-56
2023/04/22 00:05:40;;;;;;;8.43;3.10;;;;;;;;;;5054840;28;20106;-54
2023/04/22 00:08:14;;;;;;;6.25;2.35;;;;;;;;;;5061493;28;20067;-64
2023/04/22 00:10:41;;;;;;;2.88;2.50;;;;;;;;;;5058332;28;20537;-50
2023/04/22 00:13:09;;;;;;;4.05;2.35;;;;;;;;;;5059436;28;20049;-54
2023/04/22 00:15:43;;;;;;;7.80;2.35;;;;;;;;;;5052427;28;20049;-55
2023/04/22 00:18:12;;;;;;;6.53;2.65;;;;;;;;;;5056798;28;20117;-56
2023/04/22 00:20:46;;;;;;;14.00;2.80;;;;;;;;;;5061365;28;20103;-57
2023/04/22 00:23:13;;;;;;;4.15;2.55;;;;;;;;;;5060774;28;20062;-57
2023/04/22 00:25:40;;;;;;;4.32;2.25;;;;;;;;;;5057470;28;20131;-57
2023/04/22 00:28:14;;;;;;;4.15;2.78;;;;;;;;;;5058173;28;20135;-55
2023/04/22 00:30:41;;;;;;;2.85;2.30;;;;;;;;;;5059005;28;20076;-56
2023/04/22 00:33:09;;;;;;;6.60;2.50;;;;;;;;;;5057208;28;20132;-55
2023/04/22 00:35:44;;;;;;;3.60;2.38;;;;;;;;;;5057466;28;20049;-57
2023/04/22 00:38:11;;;;;;;9.15;2.83;;;;;;;;;;5057144;28;20053;-64
2023/04/22 00:40:39;;;;;;;4.63;2.70;;;;;;;;;;5058292;28;20049;-64
2023/04/22 00:43:13;;;;;;;5.50;2.65;;;;;;;;;;5054387;28;20140;-64
2023/04/22 00:45:41;;;;;;;3.85;2.70;;;;;;;;;;5053250;28;20063;-64
2023/04/22 00:48:22;;;;;;;4.63;2.78;;;;;;;;;;5055562;28;20053;-46
2023/04/22 00:50:49;;;;;;;6.53;2.78;;;;;;;;;;5057649;28;20059;-60
2023/04/22 00:53:23;;;;;;;4.13;2.75;;;;;;;;;;5058809;28;20051;-60
2023/04/22 00:55:57;;;;;;;5.25;2.75;;;;;;;;;;5057668;28;20045;-60
2023/04/22 00:58:31;;;;;;;6.45;2.67;;;;;;;;;;5056957;28;20144;-60
2023/04/22 01:00:58;;;;;;;5.93;2.50;;;;;;;;;;5059646;28;20191;-60
2023/04/22 01:03:29;;;;;;;3.45;2.70;;;;;;;;;;5058799;28;20040;-60
2023/04/22 01:06:03;;;;;;;5.32;2.20;;;;;;;;;;5047652;28;20516;-59
2023/04/22 01:08:30;;;;;;;4.50;2.30;;;;;;;;;;5059158;28;20064;-58
2023/04/22 01:10:58;;;;;;;6.80;2.50;;;;;;;;;;5057672;28;20137;-59
2023/04/22 01:13:32;;;;;;;5.22;2.85;;;;;;;;;;5057310;28;20168;-57
2023/04/22 01:16:00;;;;;;;5.30;2.63;;;;;;;;;;5055883;28;20052;-55
2023/04/22 01:18:37;;;;;;;8.13;3.00;;;;;;;;;;5055508;28;20060;-57
2023/04/22 01:21:05;;;;;;;4.63;2.95;;;;;;;;;;5057369;28;20471;-59
2023/04/22 01:23:33;;;;;;;4.43;2.55;;;;;;;;;;5058376;28;20095;-59
2023/04/22 01:26:07;;;;;;;4.95;3.20;;;;;;;;;;5054823;28;20051;-59
2023/04/22 01:28:34;;;;;;;3.67;2.80;;;;;;;;;;5054072;28;20095;-58
2023/04/22 01:31:08;;;;;;;6.03;2.80;;;;;;;;;;5056965;28;20055;-59
2023/04/22 01:33:36;;;;;;;;;;;;;;;;;;5056062;28;20502;-60
2023/04/22 01:36:03;;;;;;;5.75;2.60;;;;;;;;;;5057119;28;19935;-49
2023/04/22 01:38:39;;;;;;;5.32;2.50;;;;;;;;;;5058189;28;20056;-52
2023/04/22 01:41:07;;;;;;;5.18;2.80;;;;;;;;;;5060118;28;20099;-49
2023/04/22 01:43:41;;;;;;;4.70;2.67;;;;;;;;;;5055941;28;20058;-64
2023/04/22 01:46:17;;;;;;;6.50;2.40;;;;;;;;;;5057132;28;20190;-47
2023/04/22 01:48:58;;;;;;;3.88;2.75;;;;;;;;;;5052381;28;20072;-64
2023/04/22 01:51:25;;;;;;;8.10;3.17;;;;;;;;;;5056521;28;20052;-63
2023/04/22 01:53:59;;;;;;;5.65;2.60;;;;;;;;;;5057073;28;20056;-63
2023/04/22 01:56:33;;;;;;;5.47;2.25;;;;;;;;;;5055602;28;20141;-64
2023/04/22 01:59:07;;;;;;;10.45;3.08;;;;;;;;;;5054351;28;20056;-64
2023/04/22 02:01:41;;;;;;;7.07;2.97;;;;;;;;;;5056455;28;20049;-63
2023/04/22 02:04:08;;;;;;;4.57;3.00;;;;;;;;;;5055062;28;20166;-61
2023/04/22 02:06:35;;;;;;;8.43;2.58;;;;;;;;;;5056446;28;20128;-60
2023/04/22 02:09:09;;;;;;;3.10;2.35;;;;;;;;;;5056717;28;20067;-60
2023/04/22 02:11:43;;;;;;;5.97;2.85;;;;;;;;;;5056111;28;20052;-59
2023/04/22 02:14:10;;;;;;;8.10;3.08;;;;;;;;;;5056568;28;20044;-54
2023/04/22 02:16:37;;;;;;;7.78;3.00;;;;;;;;;;5057462;28;20041;-58
2023/04/22 02:19:11;;;;;;;5.40;2.72;;;;;;;;;;5052610;28;20053;-57
2023/04/22 02:21:38;;;;;;;7.75;3.00;;;;;;;;;;5055804;28;20087;-53
2023/04/22 02:24:12;;;;;;;3.97;2.60;;;;;;;;;;5053242;28;20143;-55
2023/04/22 02:26:40;;;;;;;8.45;2.95;;;;;;;;;;5058230;28;20058;-57
2023/04/22 02:29:07;;;;;;;5.45;2.83;;;;;;;;;;5054192;28;20056;-58
2023/04/22 02:31:41;;;;;;;4.20;2.63;;;;;;;;;;5055560;28;20476;-59
2023/04/22 02:34:08;;;;;;;8.70;2.95;;;;;;;;;;5056061;28;20518;-59
2023/04/22 02:36:35;;;;;;;4.75;3.00;;;;;;;;;;5052570;28;20053;-59
2023/04/22 02:39:10;;;;;;;6.45;2.60;;;;;;;;;;5055545;28;20190;-59
2023/04/22 02:41:37;;;;;;;8.27;3.00;;;;;;;;;;5054009;28;20069;-46
2023/04/22 02:44:11;;;;;;;4.50;2.90;;;;;;;;;;5053064;28;20057;-48
2023/04/22 02:46:44;;;;;;;5.22;3.05;;;;;;;;;;5055780;28;20056;-50
2023/04/22 02:49:18;;;;;;;7.07;2.97;;;;;;;;;;5051887;28;20052;-48
2023/04/22 02:51:45;;;;;;;10.35;3.47;;;;;;;;;;5052291;28;20523;-47
2023/04/22 02:54:12;;;;;;;6.22;3.33;;;;;;;;;;5054479;28;22962;-46
2023/04/22 02:56:46;;;;;;;4.57;2.88;;;;;;;;;;5058401;28;20045;-47
2023/04/22 02:59:20;;;;;;;4.97;3.30;;;;;;;;;;5058898;28;20084;-51
2023/04/22 03:01:54;;;;;;;6.90;3.15;;;;;;;;;;5053841;28;20412;-53
2023/04/22 03:04:32;;;;;;;7.43;3.28;;;;;;;;;;5052343;28;20058;-51
2023/04/22 03:07:06;;;;;;;3.67;2.47;;;;;;;;;;5051724;28;20068;-54
2023/04/22 03:09:33;;;;;;;5.60;3.47;;;;;;;;;;5053950;28;20579;-44
2023/04/22 03:12:07;;;;;;;6.20;3.10;;;;;;;;;;5054978;28;20560;-53
2023/04/22 03:14:35;;;;;;;5.82;2.97;;;;;;;;;;5059195;28;20183;-55
2023/04/22 03:17:02;;;;;;;5.40;2.72;;;;;;;;;;5055322;28;20053;-51
2023/04/22 03:19:36;;;;;;;3.97;2.90;;;;;;;;;;5055299;28;20059;-52
2023/04/22 03:22:03;;;;;;;6.57;3.05;;;;;;;;;;5052130;28;20132;-53
2023/04/22 03:24:37;;;;;;;6.13;3.03;;;;;;;;;;5054650;28;20048;-55
2023/04/22 03:27:05;;;;;;;9.75;3.22;;;;;;;;;;5057201;28;20135;-55
2023/04/22 03:29:32;;;;;;;6.53;2.78;;;;;;;;;;5058154;28;20064;-58
2023/04/22 03:32:07;;;;;;;9.23;3.13;;;;;;;;;;5053281;28;20068;-55
2023/04/22 03:34:34;;;;;;;10.10;3.00;;;;;;;;;;5050175;28;20065;-59
2023/04/22 03:37:09;;;;;;;7.85;3.13;;;;;;;;;;5053098;28;20044;-58
2023/04/22 03:39:43;;;;;;;4.90;2.90;;;;;;;;;;5053722;28;20044;-65
2023/04/22 03:42:17;;;;;;;5.43;3.03;;;;;;;;;;5059776;28;21332;-65
2023/04/22 03:44:51;;;;;;;6.50;2.75;;;;;;;;;;5057554;28;20052;-63
2023/04/22 03:47:18;;;;;;;;;;;;;;;;;;5059627;28;20179;-65
2023/04/22 03:49:52;;;;;;;4.30;2.70;;;;;;;;;;5057802;28;20397;-65
2023/04/22 03:52:26;;;;;;;8.80;3.30;;;;;;;;;;5056357;28;20048;-65
2023/04/22 03:54:53;;;;;;;4.22;3.03;;;;;;;;;;5056371;28;20443;-65
2023/04/22 03:57:27;;;;;;;4.07;3.05;;;;;;;;;;5059823;28;20139;-53
2023/04/22 03:59:54;;;;;;;4.72;3.30;;;;;;;;;;5058829;28;20149;-53
2023/04/22 04:02:21;;;;;;;7.80;3.13;;;;;;;;;;5060155;28;20083;-53
2023/04/22 04:04:55;;;;;;;4.47;3.20;;;;;;;;;;5060606;28;20048;-50
2023/04/22 04:07:22;;;;;;;;;;;;;;;;;;5058749;28;20052;-55
2023/04/22 04:09:56;;;;;;;13.05;3.33;;;;;;;;;;5058336;28;19927;-50
2023/04/22 04:12:23;;;;;;;5.68;3.40;;;;;;;;;;5058199;28;20194;-51
2023/04/22 04:14:50;;;;;;;7.20;3.97;;;;;;;;;;5055459;28;20049;-51
2023/04/22 04:17:24;;;;;;;9.27;3.90;;;;;;;;;;5058654;28;20052;-49
2023/04/22 04:19:52;;;;;;;7.65;2.90;;;;;;;;;;5058687;28;20109;-51
2023/04/22 04:22:28;;;;;;;3.53;2.30;;;;;;;;;;5058589;28;20052;-48
2023/04/22 04:24:55;;;;;;;10.13;2.85;;;;;;;;;;5058438;28;20052;-58
2023/04/22 04:27:23;;;;;;;5.15;2.60;;;;;;;;;;5062003;28;20052;-59
2023/04/22 04:29:57;;;;;;;5.90;2.63;;;;;;;;;;5060103;28;20147;-58
2023/04/22 04:32:24;;;;;;;4.47;2.88;;;;;;;;;;5057450;28;20500;-58
2023/04/22 04:34:51;;;;;;;7.43;2.67;;;;;;;;;;5057509;28;20139;-49
2023/04/22 04:37:26;;;;;;;5.50;2.70;;;;;;;;;;5057045;28;20519;-64
2023/04/22 04:39:53;;;;;;;4.68;2.58;;;;;;;;;;5039900;28;20423;-52
2023/04/22 04:42:23;;;;;;;4.50;2.50;;;;;;;;;;5056843;28;20063;-54
2023/04/22 04:44:57;;;;;;;3.67;2.58;;;;;;;;;;5063235;28;20419;-58
2023/04/22 04:47:32;;;;;;;4.15;2.47;;;;;;;;;;5055269;28;20526;-55
2023/04/22 04:50:06;;;;;;;11.13;2.90;;;;;;;;;;5058051;28;20056;-55
2023/04/22 04:52:33;;;;;;;3.85;2.28;;;;;;;;;;5056791;28;20064;-56
2023/04/22 04:55:07;;;;;;;6.05;2.22;;;;;;;;;;5060019;28;20059;-51
2023/04/22 04:57:34;;;;;;;5.55;2.35;;;;;;;;;;5061228;28;20100;-51
2023/04/22 05:00:05;;;;;;;4.32;2.42;;;;;;;;;;5059393;28;20052;-50
2023/04/22 05:02:39;;;;;;;5.03;2.58;;;;;;;;;;5041558;28;20059;-48
2023/04/22 05:05:08;;;;;;;4.28;2.72;;;;;;;;;;5057442;28;20131;-63
2023/04/22 05:07:42;;;;;;;4.78;2.80;;;;;;;;;;5056801;28;20044;-55
2023/04/22 05:10:10;;;;;;;3.75;2.45;;;;;;;;;;5056096;28;20048;-56
2023/04/22 05:12:37;;;;;;;;;;;;;;;;;;5055320;28;20060;-55
2023/04/22 05:15:11;;;;;;;2.80;2.42;;;;;;;;;;5059343;28;19931;-55
2023/04/22 05:17:39;;;;;;;5.10;2.20;;;;;;;;;;5054915;28;20080;-52
2023/04/22 05:20:13;;;;;;;4.10;2.83;;;;;;;;;;5055490;28;20048;-55
2023/04/22 05:22:42;;;;;;;5.10;2.33;;;;;;;;;;5053572;28;20075;-53
2023/04/22 05:25:09;;;;;;;2.95;2.40;;;;;;;;;;5055663;28;20067;-56
2023/04/22 05:27:43;;;;;;;8.10;2.85;;;;;;;;;;5055559;28;20047;-56
2023/04/22 05:30:10;;;;;;;4.97;2.30;;;;;;;;;;5055476;28;20056;-56
2023/04/22 05:32:37;;;;;;;4.10;2.38;;;;;;;;;;5054497;28;20045;-53
2023/04/22 05:35:11;;;;;;;3.20;2.40;;;;;;;;;;5055624;28;20053;-47
2023/04/22 05:37:38;;;;;;;4.60;2.40;;;;;;;;;;5054244;28;20393;-46
2023/04/22 05:40:12;;;;;;;3.45;2.60;;;;;;;;;;5053782;28;20467;-48
2023/04/22 05:42:39;;;;;;;5.00;2.95;;;;;;;;;;5054454;28;20067;-49
2023/04/22 05:45:07;;;;;;;4.95;2.65;;;;;;;;;;5059530;28;20048;-46
2023/04/22 05:47:54;;;;;;;4.55;2.70;;;;;;;;;;5056101;28;20053;-47
2023/04/22 05:50:28;;;;;;;7.13;2.75;;;;;;;;;;5052610;28;20056;-53
2023/04/22 05:53:02;;;;;;;7.28;2.72;;;;;;;;;;5056091;28;20051;-53
2023/04/22 05:55:29;;;;;;;3.88;2.80;;;;;;;;;;5052508;28;20113;-54
2023/04/22 05:57:56;;;;;;;4.97;2.83;;;;;;;;;;5053568;28;20182;-53
2023/04/22 06:00:30;;;;;;;8.60;2.40;;;;;;;;;;5057592;28;20157;-63
2023/04/22 06:02:57;;;;;;;6.28;2.90;;;;;;;;;;5049303;28;20136;-62
2023/04/22 06:05:31;;;;;;;6.43;2.85;;;;;;;;;;5050997;28;20056;-50
2023/04/22 06:07:59;;;;;;;5.70;2.88;;;;;;;;;;5041293;28;20136;-49
2023/04/22 06:10:26;;;;;;;7.28;2.80;;;;;;;;;;5043616;28;20080;-49
2023/04/22 06:13:00;;;;;;;6.40;2.70;;;;;;;;;;5046367;28;20136;-47
2023/04/22 06:15:27;;;;;;;5.85;2.80;;;;;;;;;;5044221;28;20066;-53
2023/04/22 06:18:01;;;;;;;7.22;2.67;;;;;;;;;;5038378;28;20049;-44
2023/04/22 06:20:31;;;;;;;4.82;2.50;;;;;;;;;;5045373;28;20657;-51
2023/04/22 06:22:58;;;;;;;6.70;2.58;;;;;;;;;;5046787;28;20599;-56
2023/04/22 06:25:32;;;;;;;7.22;3.15;;;;;;;;;;5043657;28;20136;-55
2023/04/22 06:27:59;;;;;;;6.90;3.00;;;;;;;;;;5049419;28;20051;-55
2023/04/22 06:30:33;;;;;;;6.07;2.90;;;;;;;;;;5054267;28;20526;-56
2023/04/22 06:33:00;;;;;;;7.57;2.97;;;;;;;;;;5057218;28;20055;-55
2023/04/22 06:35:27;;;;;;;5.53;2.63;;;;;;;;;;5052696;28;20057;-55
2023/04/22 06:38:01;;;;;;;5.80;2.53;;;;;;;;;;5055450;28;20056;-61
2023/04/22 06:40:28;;;;;;;5.90;2.70;;;;;;;;;;5050530;28;20044;-61
2023/04/22 06:42:55;;;;;;;5.45;3.08;;;;;;;;;;5051199;28;20056;-61
2023/04/22 06:45:29;;;;;;;7.60;3.00;;;;;;;;;;5058027;28;20051;-61
2023/04/22 06:48:03;;;;;;;10.50;3.42;;;;;;;;;;5053859;28;20061;-60
2023/04/22 06:50:36;;;;;;;7.25;3.03;;;;;;;;;;5051418;28;20512;-48
2023/04/22 06:53:03;;;;;;;4.63;3.13;;;;;;;;;;5052806;28;20131;-51
2023/04/22 06:55:30;;;;;;;4.95;2.90;;;;;;;;;;5055741;28;20056;-53
2023/04/22 06:58:04;;;;;;;7.15;3.10;;;;;;;;;;5056380;28;20057;-51
2023/04/22 07:00:31;;;;;;;13.02;3.30;;;;;;;;;;5058626;28;20084;-47
2023/04/22 07:03:05;;;;;;;9.38;3.20;;;;;;;;;;5039928;28;20052;-52
2023/04/22 07:05:32;;;;;;;3.85;2.70;;;;;;;;;;5053828;28;20152;-49
2023/04/22 07:07:59;;;;;;;4.47;3.08;;;;;;;;;;5054180;28;20041;-55
2023/04/22 07:10:33;;;;;;;7.40;2.90;;;;;;;;;;5056854;28;20057;-61
2023/04/22 07:13:00;;;;;;;5.55;2.55;;;;;;;;;;5052290;28;20080;-61
2023/04/22 07:15:27;;;;;;;5.82;2.65;;;;;;;;;;5057435;28;20131;-61
2023/04/22 07:18:01;;;;;;;7.22;2.92;;;;;;;;;;5060907;28;20140;-61
2023/04/22 07:20:28;;;;;;;4.63;2.80;;;;;;;;;;5058675;28;20049;-60
2023/04/22 07:23:02;;;;;;;5.00;2.55;;;;;;;;;;5060117;28;20435;-60
2023/04/22 07:25:29;;;;;;;4.03;2.58;;;;;;;;;;5062567;28;20045;-55
2023/04/22 07:27:56;;;;;;;5.82;2.45;;;;;;;;;;5058508;28;20045;-53
2023/04/22 07:30:30;;;;;;;5.97;2.50;;;;;;;;;;5059343;28;20138;-53
2023/04/22 07:32:57;;;;;;;4.97;2.58;;;;;;;;;;5060233;28;20172;-56
2023/04/22 07:35:31;;;;;;;3.83;2.45;;;;;;;;;;5057190;28;20056;-51
2023/04/22 07:37:58;;;;;;;7.20;2.40;;;;;;;;;;5061579;28;20088;-56
2023/04/22 07:40:25;;;;;;;5.50;2.60;;;;;;;;;;5059657;28;20509;-56
2023/04/22 07:43:00;;;;;;;7.55;2.50;;;;;;;;;;5052041;28;20143;-59
2023/04/22 07:45:27;;;;;;;5.15;2.70;;;;;;;;;;5059756;28;20127;-59
2023/04/22 07:48:08;;;;;;;4.40;2.50;;;;;;;;;;5057803;28;20503;-59
2023/04/22 07:50:35;;;;;;;11.80;2.50;;;;;;;;;;5060391;28;20062;-59
2023/04/22 07:53:09;;;;;;;5.30;2.25;;;;;;;;;;5055095;28;20055;-59
2023/04/22 07:55:43;;;;;;;4.38;2.53;;;;;;;;;;5058164;28;20048;-53
2023/04/22 07:58:10;;;;;;;5.43;2.30;;;;;;;;;;5051547;28;20548;-51
2023/04/22 08:00:37;;;;;;;5.88;2.50;;;;;;;;;;5061193;28;20793;-51
2023/04/22 08:03:11;;;;;;;5.30;2.40;;;;;;;;;;5055915;28;20052;-53
2023/04/22 08:05:38;;;;;;;4.82;2.47;;;;;;;;;;5057924;28;20107;-48
2023/04/22 08:08:12;;;;;;;8.23;2.70;;;;;;;;;;5057039;28;20053;-54
2023/04/22 08:10:39;;;;;;;5.07;2.35;;;;;;;;;;5057272;28;20057;-54
2023/04/22 08:13:06;;;;;;;12.32;2.50;;;;;;;;;;5055620;28;20748;-53
2023/04/22 08:15:42;;;;;;;6.35;2.60;;;;;;;;;;5054298;28;20052;-54
2023/04/22 08:18:09;;;;;;;6.00;2.65;;;;;;;;;;5057475;28;20092;-52
2023/04/22 08:20:36;;;;;;;6.03;2.25;;;;;;;;;;5056134;28;20531;-49
2023/04/22 08:23:10;;;;;;;3.60;2.30;;;;;;;;;;5058238;28;20598;-61
2023/04/22 08:25:38;;;;;;;3.10;2.20;;;;;;;;;;5055196;28;20128;-51
2023/04/22 08:28:05;;;;;;;6.72;2.38;;;;;;;;;;5054516;28;20055;-52
2023/04/22 08:30:39;;;;;;;6.85;2.25;;;;;;;;;;5059590;28;20144;-51
2023/04/22 08:33:06;;;;;;;;;;;;;;;;;;5057590;28;20433;-54
2023/04/22 08:35:40;;;;;;;3.05;2.03;;;;;;;;;;5054140;28;20016;-53
2023/04/22 08:38:07;;;;;;;;;;;;;;;;;;5051594;28;20132;-52
2023/04/22 08:40:35;;;;;;;5.90;2.30;;;;;;;;;;5055154;28;20299;-52
2023/04/22 08:43:09;;;;;;;6.65;2.10;;;;;;;;;;5057410;28;20049;-52
2023/04/22 08:45:39;;;;;;;6.22;2.47;;;;;;;;;;5056905;28;20135;-54
2023/04/22 08:48:26;;;;;;;5.03;2.17;;;;;;;;;;5053529;28;20504;-50
2023/04/22 08:51:00;;;;;;;4.25;2.20;;;;;;;;;;5056418;28;20104;-55
2023/04/22 08:53:34;;;;;;;3.67;2.10;;;;;;;;;;5050294;28;20447;-53
2023/04/22 08:56:01;;;;;;;4.13;2.08;;;;;;;;;;5055384;28;20048;-54
2023/04/22 08:58:35;;;;;;;7.07;2.20;;;;;;;;;;5053325;28;20138;-54
2023/04/22 09:01:02;;;;;;;;;;;;;;;;;;5043429;28;20052;-53
2023/04/22 09:03:30;;;;;;;4.40;2.20;;;;;;;;;;5054514;28;20366;-55
2023/04/22 09:06:04;;;;;;;4.15;1.90;;;;;;;;;;5050369;28;20068;-52
2023/04/22 09:08:32;;;;;;;7.85;2.30;;;;;;;;;;5050284;28;20126;-57
2023/04/22 09:10:59;;;;;;;6.43;2.13;;;;;;;;;;5053950;28;20047;-57
2023/04/22 09:13:33;;;;;;;6.15;2.00;;;;;;;;;;5051134;28;20059;-56
2023/04/22 09:16:00;;;;;;;4.40;2.28;;;;;;;;;;5051411;28;20550;-56
2023/04/22 09:18:44;;;;;;;4.22;2.15;;;;;;;;;;5055968;28;20049;-60
2023/04/22 09:21:12;;;;;;;6.85;2.10;;;;;;;;;;5055719;28;20056;-53
2023/04/22 09:23:49;;;;;;;4.40;1.80;;;;;;;;;;5054277;28;20053;-58
2023/04/22 09:26:24;;;;;;;8.95;1.95;;;;;;;;;;5055607;28;20132;-55
2023/04/22 09:28:59;;;;;;;6.82;2.25;;;;;;;;;;5052489;28;20040;-57
2023/04/22 09:31:33;;;;;;;5.03;2.00;;;;;;;;;;5058612;28;20139;-57
2023/04/22 09:34:00;;;;;;;;;;;;;;;;;;5055934;28;20052;-57
2023/04/22 09:36:28;;;;;;;2.58;1.90;;;;;;;;;;5059132;28;20384;-54
2023/04/22 09:39:03;;;;;;;3.15;2.15;;;;;;;;;;5055146;28;20614;-55
2023/04/22 09:41:31;;;;;;;5.72;2.20;;;;;;;;;;5056727;28;20542;-56
2023/04/22 09:44:08;;;;;;;4.57;2.13;;;;;;;;;;5053846;28;20133;-53
2023/04/22 09:46:35;;;;;;;4.55;1.77;;;;;;;;;;5053567;28;20061;-58
2023/04/22 09:49:16;;;;;;;3.33;2.08;;;;;;;;;;5049686;28;20128;-59
2023/04/22 09:51:43;;;;;;;4.57;1.83;;;;;;;;;;5049756;28;20132;-58
2023/04/22 09:54:17;;;;;;;2.13;1.60;;;;;;;;;;5055311;28;20143;-58
2023/04/22 09:56:47;;;;;;;3.83;2.10;;;;;;;;;;5048623;28;20088;-59
2023/04/22 09:59:22;;;;;;;3.97;1.65;;;;;;;;;;5045755;28;20053;-59
2023/04/22 10:01:51;;;;;;;3.38;1.40;;;;;;;;;;5047946;28;20057;-59
2023/04/22 10:04:20;;;;;;;5.45;1.80;;;;;;;;;;5053153;28;20096;-55
2023/04/22 10:06:55;;;;;;;5.40;1.70;;;;;;;;;;5051088;28;20853;-53
2023/04/22 10:09:24;;;;;;;3.22;1.92;;;;;;;;;;5047932;28;20088;-50
2023/04/22 10:11:58;;;;;;;9.90;1.90;;;;;;;;;;5050244;28;20048;-55
2023/04/22 10:14:25;;;;;;;5.65;1.77;;;;;;;;;;5028339;28;20052;-58
2023/04/22 10:17:01;;;;;;;6.35;1.45;;;;;;;;;;5052764;28;20056;-62
2023/04/22 10:19:35;;;;;;;3.83;1.70;;;;;;;;;;5051930;28;20171;-64
2023/04/22 10:22:03;;;;;;;;;;;;;;;;;;5049827;28;20052;-63
2023/04/22 10:24:37;;;;;;;3.45;1.30;;;;;;;;;;5034002;28;19925;-63
2023/04/22 10:27:05;;;;;;;2.50;1.40;;;;;;;;;;5052466;28;20570;-63
2023/04/22 10:29:41;;;;;;;4.97;1.70;;;;;;;;;;5047852;28;20195;-63
2023/04/22 10:32:17;;;;;;;4.45;1.67;;;;;;;;;;5054233;28;20113;-63
2023/04/22 10:35:09;;;;;;;8.50;1.58;;;;;;;;;;5053015;28;20087;-58
2023/04/22 10:37:38;;;;;;;12.75;1.92;;;;;;;;;;5055790;28;20057;-59
2023/04/22 10:40:16;;;;;;;2.60;1.35;;;;;;;;;;5051823;28;20059;-58
2023/04/22 10:42:48;;;;;;;4.00;1.38;;;;;;;;;;5042566;28;20060;-59
2023/04/22 10:45:24;;;;;;;8.52;1.50;;;;;;;;;;5057474;28;20055;-53
2023/04/22 10:47:58;;;;;;;2.20;1.50;;;;;;;;;;5051885;28;20049;-61
2023/04/22 10:50:32;;;;;;;3.05;1.30;;;;;;;;;;5052023;28;20143;-60
2023/04/22 10:53:03;;;;;;;5.28;1.65;;;;;;;;;;5051312;28;20073;-61
2023/04/22 10:55:50;;;;;;;1.98;1.23;;;;;;;;;;5051617;28;20052;-61
2023/04/22 10:58:24;;;;;;;2.10;1.40;;;;;;;;;;5050888;28;20050;-60
2023/04/22 11:01:01;;;;;;;;;;;;;;;;;;5051846;28;20501;-59
2023/04/22 11:03:35;;;;;;;3.20;1.17;;;;;;;;;;5050378;28;19920;-55
2023/04/22 11:06:05;;;;;;;;;;;;;;;;;;5055294;28;20567;-54
2023/04/22 11:08:47;;;;;;;3.22;1.45;;;;;;;;;;5057642;28;19931;-55
2023/04/22 11:11:16;;;;;;;2.85;1.30;;;;;;;;;;5049723;28;20056;-55
2023/04/22 11:13:44;;;;;;;1.98;1.08;;;;;;;;;;5053090;28;21007;-59
2023/04/22 11:16:21;;;;;;;3.90;1.73;;;;;;;;;;5050448;28;21494;-60
2023/04/22 11:18:49;;;;;;;5.25;1.55;;;;;;;;;;5053304;28;20069;-61
2023/04/22 11:21:23;;;;;;;4.63;1.35;;;;;;;;;;5055597;28;20071;-60
2023/04/22 11:23:51;;;;;;;4.00;1.30;;;;;;;;;;5044961;28;20049;-60
2023/04/22 11:26:19;;;;;;;4.32;1.58;;;;;;;;;;5053156;28;20367;-60
2023/04/22 11:28:52;;;;;;;2.30;1.15;;;;;;;;;;5044642;28;20136;-60
2023/04/22 11:31:26;;;;;;;3.90;1.30;;;;;;;;;;5046141;28;20049;-57
2023/04/22 11:34:00;;;;;;;4.13;1.40;;;;;;;;;;5047823;28;20049;-54
2023/04/22 11:36:27;;;;;;;3.22;1.30;;;;;;;;;;5049799;28;20095;-55
2023/04/22 11:38:55;;;;;;;3.40;1.48;;;;;;;;;;5053589;28;20548;-55
2023/04/22 11:41:30;;;;;;;1.73;1.20;;;;;;;;;;5048521;28;20048;-63
2023/04/22 11:44:04;;;;;;;2.25;1.50;;;;;;;;;;5045003;28;20049;-62
2023/04/22 11:46:37;;;;;;;;;;;;;;;;;;5045246;28;20052;-62
2023/04/22 11:49:18;;;;;;;3.85;1.63;;;;;;;;;;5051776;28;19964;-61
2023/04/22 11:51:56;;;;;;;3.00;1.50;;;;;;;;;;5048053;28;20080;-63
2023/04/22 11:54:30;;;;;;;7.82;2.20;;;;;;;;;;5051790;28;20139;-63
2023/04/22 11:56:57;;;;;;;4.55;1.90;;;;;;;;;;5049363;28;20446;-62
2023/04/22 11:59:24;;;;;;;8.52;1.83;;;;;;;;;;5052980;28;20045;-59
2023/04/22 12:01:58;;;;;;;3.42;1.60;;;;;;;;;;5049696;28;20057;-59
2023/04/22 12:04:25;;;;;;;4.93;1.60;;;;;;;;;;5059230;28;20048;-59
2023/04/22 12:06:59;;;;;;;10.55;1.67;;;;;;;;;;5055990;28;20057;-59
2023/04/22 12:09:27;;;;;;;6.10;1.90;;;;;;;;;;5054263;28;20416;-60
2023/04/22 12:12:02;;;;;;;5.65;2.15;;;;;;;;;;5055060;28;20106;-60
2023/04/22 12:14:33;;;;;;;2.38;1.60;;;;;;;;;;5055226;28;20085;-59
2023/04/22 12:17:10;;;;;;;5.43;1.50;;;;;;;;;;5058396;28;20057;-60
2023/04/22 12:19:47;;;;;;;3.60;1.75;;;;;;;;;;5038826;28;20071;-60
2023/04/22 12:22:27;;;;;;;3.33;1.85;;;;;;;;;;5055388;28;20614;-60
2023/04/22 12:25:02;;;;;;;5.93;1.92;;;;;;;;;;5060109;28;20053;-59
2023/04/22 12:27:29;;;;;;;3.22;1.80;;;;;;;;;;5058186;28;20094;-63
2023/04/22 12:29:56;;;;;;;3.50;1.60;;;;;;;;;;5053288;28;20773;-54
2023/04/22 12:32:30;;;;;;;3.38;1.50;;;;;;;;;;5055566;28;20099;-55
2023/04/22 12:34:57;;;;;;;4.03;1.80;;;;;;;;;;5053568;28;20049;-51
2023/04/22 12:37:31;;;;;;;5.35;2.10;;;;;;;;;;5057321;28;20080;-53
2023/04/22 12:39:58;;;;;;;4.68;2.28;;;;;;;;;;5057269;28;20049;-52
2023/04/22 12:42:26;;;;;;;7.28;2.53;;;;;;;;;;5052026;28;20094;-50
2023/04/22 12:44:59;;;;;;;5.22;2.25;;;;;;;;;;5054381;28;20055;-53
2023/04/22 12:47:26;;;;;;;6.32;2.78;;;;;;;;;;5056094;28;20076;-53
2023/04/22 12:50:07;;;;;;;4.20;2.25;;;;;;;;;;5051633;28;22227;-50
2023/04/22 12:52:35;;;;;;;5.25;2.28;;;;;;;;;;5055960;28;20087;-53
2023/04/22 12:55:09;;;;;;;4.40;2.10;;;;;;;;;;5054621;28;20080;-59
2023/04/22 12:57:36;;;;;;;;;;;;;;;;;;5053429;28;20056;-55
2023/04/22 13:00:05;;;;;;;6.72;2.30;;;;;;;;;;5049596;28;19927;-60
2023/04/22 13:02:40;;;;;;;3.33;2.17;;;;;;;;;;5049087;28;20056;-59
2023/04/22 13:05:09;;;;;;;5.00;2.72;;;;;;;;;;5055482;28;20056;-60
2023/04/22 13:07:43;;;;;;;3.35;2.10;;;;;;;;;;5045719;28;20056;-60
2023/04/22 13:10:32;;;;;;;6.13;2.25;;;;;;;;;;5055792;28;20052;-60
2023/04/22 13:13:07;;;;;;;7.65;2.38;;;;;;;;;;5050286;28;20094;-60
2023/04/22 13:15:37;;;;;;;5.35;2.45;;;;;;;;;;5055666;28;20087;-60
2023/04/22 13:18:11;;;;;;;7.88;3.05;;;;;;;;;;5053905;28;20067;-61
2023/04/22 13:20:40;;;;;;;5.38;3.03;;;;;;;;;;5056537;28;20061;-60
2023/04/22 13:23:15;;;;;;;4.13;2.50;;;;;;;;;;5054362;28;20088;-61
2023/04/22 13:25:43;;;;;;;4.22;2.67;;;;;;;;;;5049401;28;20068;-63
2023/04/22 13:28:10;;;;;;;7.03;2.80;;;;;;;;;;5046158;28;20044;-63
2023/04/22 13:30:44;;;;;;;8.15;3.05;;;;;;;;;;5044704;28;20412;-63
2023/04/22 13:33:11;;;;;;;4.72;2.92;;;;;;;;;;5055832;28;20503;-62
2023/04/22 13:35:39;;;;;;;5.20;2.80;;;;;;;;;;5055287;28;20084;-63
2023/04/22 13:38:34;;;;;;;4.82;2.90;;;;;;;;;;5054779;28;20132;-62
2023/04/22 13:41:08;;;;;;;7.53;2.60;;;;;;;;;;5055255;28;20646;-63
2023/04/22 13:43:42;;;;;;;8.52;2.97;;;;;;;;;;5053794;28;20567;-59
2023/04/22 13:46:09;;;;;;;9.45;3.25;;;;;;;;;;5057582;28;20072;-60
2023/04/22 13:48:36;;;;;;;4.63;2.95;;;;;;;;;;5054082;28;20088;-60
2023/04/22 13:51:10;;;;;;;8.10;2.72;;;;;;;;;;5057352;28;20053;-60
2023/04/22 13:53:37;;;;;;;7.53;2.85;;;;;;;;;;5055703;28;20417;-58
2023/04/22 13:56:05;;;;;;;8.18;3.05;;;;;;;;;;5055627;28;20052;-62
2023/04/22 13:58:41;;;;;;;5.97;3.50;;;;;;;;;;5053526;28;20101;-62
2023/04/22 14:01:08;;;;;;;8.85;3.20;;;;;;;;;;5050845;28;20052;-62
2023/04/22 14:03:43;;;;;;;5.43;3.13;;;;;;;;;;5055455;28;20052;-63
2023/04/22 14:06:10;;;;;;;4.70;3.20;;;;;;;;;;5054207;28;20053;-62
2023/04/22 14:08:38;;;;;;;6.55;3.05;;;;;;;;;;5049443;28;20055;-62
2023/04/22 14:11:12;;;;;;;10.30;3.17;;;;;;;;;;5051090;28;22024;-62
2023/04/22 14:13:40;;;;;;;10.10;3.42;;;;;;;;;;5054318;28;20059;-60
2023/04/22 14:16:14;;;;;;;9.50;3.33;;;;;;;;;;5049194;28;20059;-60
2023/04/22 14:18:48;;;;;;;8.63;3.40;;;;;;;;;;5051932;28;20057;-60
2023/04/22 14:21:29;;;;;;;6.45;3.40;;;;;;;;;;5052337;28;20771;-60
2023/04/22 14:24:03;;;;;;;6.70;3.63;;;;;;;;;;5055293;28;20041;-60
2023/04/22 14:26:37;;;;;;;5.47;3.33;;;;;;;;;;5056487;28;20055;-60
2023/04/22 14:29:05;;;;;;;6.97;3.25;;;;;;;;;;5054955;28;20059;-63
2023/04/22 14:31:32;;;;;;;7.10;3.20;;;;;;;;;;5053727;28;20057;-50
2023/04/22 14:34:05;;;;;;;7.18;3.10;;;;;;;;;;5054661;28;20071;-54
2023/04/22 14:36:32;;;;;;;8.15;3.70;;;;;;;;;;5054021;28;20049;-51
2023/04/22 14:39:06;;;;;;;8.57;3.67;;;;;;;;;;5055855;28;20128;-53
2023/04/22 14:41:33;;;;;;;8.55;3.58;;;;;;;;;;5053779;28;20056;-52
2023/04/22 14:44:00;;;;;;;6.20;2.92;;;;;;;;;;5056379;28;20052;-56
2023/04/22 14:46:34;;;;;;;10.07;3.38;;;;;;;;;;5060676;28;20040;-54
2023/04/22 14:49:02;;;;;;;;;;;;;;;;;;5056561;28;20131;-64
2023/04/22 14:51:42;;;;;;;5.50;3.70;;;;;;;;;;5055682;28;20394;-54
2023/04/22 14:54:09;;;;;;;7.88;3.47;;;;;;;;;;5051889;28;20632;-52
2023/04/22 14:56:43;;;;;;;7.25;3.35;;;;;;;;;;5055183;28;20048;-49
2023/04/22 14:59:10;;;;;;;8.80;3.35;;;;;;;;;;5055077;28;20149;-53
2023/04/22 15:01:44;;;;;;;5.63;3.35;;;;;;;;;;5055384;28;20053;-52
2023/04/22 15:04:13;;;;;;;;;;;;;;;;;;5054098;28;20048;-52
2023/04/22 15:06:41;;;;;;;6.85;3.47;;;;;;;;;;5056168;28;20755;-59
2023/04/22 15:09:14;;;;;;;8.13;3.88;;;;;;;;;;5054674;28;20063;-59
2023/04/22 15:11:41;;;;;;;8.15;3.90;;;;;;;;;;5056904;28;20049;-59